Time,TemperatureF,DewpointF,PressureIn,WindDirection,WindDirectionDegrees,WindSpeedMPH,WindSpeedGustMPH,Humidity,HourlyPrecipIn,Conditions,Clouds,dailyrainin,SoftwareType,DateUTC
2013-02-13 00:12:00,33.4,25.0,29.88,NNW,341,0.0,0.0,72,0.00,,,0.00,weatherlink.com 1.10,2013-02-13 05:12:00,
2013-02-13 00:27:00,32.8,26.0,29.89,South,175,0.0,5.0,75,0.00,,,0.00,weatherlink.com 1.10,2013-02-13 05:27:00,
2013-02-13 00:42:00,32.1,25.0,29.89,South,175,0.0,0.0,75,0.00,,,0.00,weatherlink.com 1.10,2013-02-13 05:42:00,
2013-02-13 00:57:00,31.5,25.0,29.89,NNW,337,0.0,3.0,76,0.00,,,0.00,weatherlink.com 1.10,2013-02-13 05:57:00,
2013-02-13 01:12:00,30.9,24.0,29.88,NNW,337,0.0,0.0,76,0.00,,,0.00,weatherlink.com 1.10,2013-02-13 06:12:00,
2013-02-13 01:27:00,30.1,24.0,29.89,NNW,337,0.0,0.0,78,0.00,,,0.00,weatherlink.com 1.10,2013-02-13 06:27:00,
2013-02-13 01:42:00,29.4,24.0,29.88,NNW,337,0.0,0.0,80,0.00,,,0.00,weatherlink.com 1.10,2013-02-13 06:42:00,
2013-02-13 01:57:00,29.0,24.0,29.87,NNW,337,0.0,0.0,81,0.00,,,0.00,weatherlink.com 1.10,2013-02-13 06:57:00,
2013-02-13 02:12:00,28.5,24.0,29.86,NNW,337,0.0,0.0,82,0.00,,,0.00,weatherlink.com 1.10,2013-02-13 07:12:00,
2013-02-13 02:27:00,28.2,24.0,29.86,NNW,337,0.0,0.0,83,0.00,,,0.00,weatherlink.com 1.10,2013-02-13 07:27:00,
2013-02-13 02:43:00,27.8,23.0,29.86,NNW,337,0.0,0.0,83,0.00,,,0.00,weatherlink.com 1.10,2013-02-13 07:43:00,
2013-02-13 02:59:00,27.3,23.0,29.85,NNW,337,0.0,0.0,84,0.00,,,0.00,weatherlink.com 1.10,2013-02-13 07:59:00,
2013-02-13 03:13:00,27.1,23.0,29.85,NNW,337,0.0,0.0,85,0.00,,,0.00,weatherlink.com 1.10,2013-02-13 08:13:00,
2013-02-13 03:28:00,26.8,23.0,29.84,NNW,337,0.0,0.0,85,0.00,,,0.00,weatherlink.com 1.10,2013-02-13 08:28:00,
2013-02-13 03:43:00,26.5,23.0,29.84,NNW,337,0.0,0.0,86,0.00,,,0.00,weatherlink.com 1.10,2013-02-13 08:43:00,
2013-02-13 03:58:00,26.3,23.0,29.84,NNW,337,0.0,0.0,86,0.00,,,0.00,weatherlink.com 1.10,2013-02-13 08:58:00,
2013-02-13 04:13:00,26.1,23.0,29.84,NNW,337,0.0,0.0,87,0.00,,,0.00,weatherlink.com 1.10,2013-02-13 09:13:00,
2013-02-13 04:28:00,25.9,23.0,29.84,NNW,337,0.0,0.0,87,0.00,,,0.00,weatherlink.com 1.10,2013-02-13 09:28:00,
2013-02-13 04:43:00,25.8,23.0,29.84,NNW,337,0.0,0.0,88,0.00,,,0.00,weatherlink.com 1.10,2013-02-13 09:43:00,
2013-02-13 04:58:00,25.7,23.0,29.84,NNW,337,0.0,0.0,88,0.00,,,0.00,weatherlink.com 1.10,2013-02-13 09:58:00,
2013-02-13 05:13:00,25.6,23.0,29.84,NNW,337,0.0,0.0,89,0.00,,,0.00,weatherlink.com 1.10,2013-02-13 10:13:00,
2013-02-13 05:28:00,25.7,23.0,29.84,NNW,337,0.0,0.0,89,0.00,,,0.00,weatherlink.com 1.10,2013-02-13 10:28:00,
2013-02-13 05:43:00,25.4,23.0,29.84,NNW,337,0.0,0.0,89,0.00,,,0.00,weatherlink.com 1.10,2013-02-13 10:43:00,
2013-02-13 05:58:00,25.5,23.0,29.83,North,10,2.0,4.0,90,0.00,,,0.00,weatherlink.com 1.10,2013-02-13 10:58:00,
2013-02-13 06:13:00,26.4,24.0,29.83,North,6,0.0,0.0,89,0.00,,,0.00,weatherlink.com 1.10,2013-02-13 11:13:00,
2013-02-13 06:28:00,26.5,24.0,29.83,North,6,0.0,0.0,89,0.00,,,0.00,weatherlink.com 1.10,2013-02-13 11:28:00,
2013-02-13 06:43:00,26.7,24.0,29.82,North,6,0.0,0.0,90,0.00,,,0.00,weatherlink.com 1.10,2013-02-13 11:43:00,
2013-02-13 06:58:00,27.2,25.0,29.82,North,6,0.0,2.0,90,0.00,,,0.00,weatherlink.com 1.10,2013-02-13 11:58:00,
2013-02-13 07:13:00,27.7,25.0,29.82,North,6,1.0,2.0,90,0.00,,,0.00,weatherlink.com 1.10,2013-02-13 12:13:00,
2013-02-13 07:28:00,28.3,26.0,29.82,North,8,0.0,0.0,89,0.00,,,0.00,weatherlink.com 1.10,2013-02-13 12:28:00,
2013-02-13 07:43:00,29.0,26.0,29.83,North,8,0.0,0.0,88,0.00,,,0.00,weatherlink.com 1.10,2013-02-13 12:43:00,
2013-02-13 07:58:00,30.1,26.0,29.83,North,8,0.0,0.0,86,0.00,,,0.00,weatherlink.com 1.10,2013-02-13 12:58:00,
2013-02-13 08:13:00,31.0,27.0,29.83,NNW,345,0.0,2.0,84,0.00,,,0.00,weatherlink.com 1.10,2013-02-13 13:13:00,
2013-02-13 08:28:00,31.8,27.0,29.83,NNW,345,0.0,0.0,82,0.00,,,0.00,weatherlink.com 1.10,2013-02-13 13:28:00,
2013-02-13 08:43:00,32.5,27.0,29.83,NNW,345,0.0,1.0,81,0.00,,,0.00,weatherlink.com 1.10,2013-02-13 13:43:00,
2013-02-13 08:58:00,33.1,27.0,29.82,NNW,332,0.0,1.0,79,0.00,,,0.00,weatherlink.com 1.10,2013-02-13 13:58:00,
2013-02-13 09:13:00,34.0,28.0,29.81,NE,36,1.0,2.0,79,0.00,,,0.00,weatherlink.com 1.10,2013-02-13 14:13:00,
2013-02-13 09:28:00,35.0,28.0,29.81,North,360,0.0,3.0,76,0.00,,,0.00,weatherlink.com 1.10,2013-02-13 14:28:00,
2013-02-13 09:43:00,36.1,29.0,29.80,NNE,13,0.0,2.0,74,0.00,,,0.00,weatherlink.com 1.10,2013-02-13 14:43:00,
2013-02-13 09:58:00,36.9,28.0,29.80,NNW,330,0.0,3.0,71,0.00,,,0.00,weatherlink.com 1.10,2013-02-13 14:58:00,
2013-02-13 10:13:00,37.9,29.0,29.79,NNE,23,0.0,2.0,69,0.00,,,0.00,weatherlink.com 1.10,2013-02-13 15:13:00,
2013-02-13 10:28:00,38.7,29.0,29.78,NNE,25,4.0,5.0,68,0.00,,,0.00,weatherlink.com 1.10,2013-02-13 15:28:00,
2013-02-13 10:43:00,38.7,29.0,29.79,NNE,18,1.0,1.0,68,0.00,,,0.00,weatherlink.com 1.10,2013-02-13 15:43:00,
2013-02-13 10:58:00,39.3,30.0,29.77,ENE,68,3.0,3.0,69,0.00,,,0.00,weatherlink.com 1.10,2013-02-13 15:58:00,
2013-02-13 11:14:00,40.7,31.0,29.77,NE,42,1.0,4.0,68,0.00,,,0.00,weatherlink.com 1.10,2013-02-13 16:14:00,
2013-02-13 11:29:00,41.7,30.0,29.75,ENE,67,4.0,6.0,64,0.00,,,0.00,weatherlink.com 1.10,2013-02-13 16:29:00,
2013-02-13 11:44:00,42.5,31.0,29.74,North,354,0.0,5.0,63,0.00,,,0.00,weatherlink.com 1.10,2013-02-13 16:44:00,
2013-02-13 11:59:00,43.2,30.0,29.73,ESE,113,0.0,4.0,60,0.00,,,0.00,weatherlink.com 1.10,2013-02-13 16:59:00,
2013-02-13 12:14:00,43.1,30.0,29.73,NE,46,1.0,7.0,61,0.00,,,0.00,weatherlink.com 1.10,2013-02-13 17:14:00,
2013-02-13 12:29:00,43.5,29.0,29.73,ESE,114,3.0,6.0,56,0.00,,,0.00,weatherlink.com 1.10,2013-02-13 17:29:00,
2013-02-13 12:44:00,42.9,29.0,29.72,SSE,150,2.0,5.0,58,0.00,,,0.00,weatherlink.com 1.10,2013-02-13 17:44:00,
2013-02-13 13:00:00,43.1,29.0,29.71,ENE,77,2.0,5.0,58,0.00,,,0.00,weatherlink.com 1.10,2013-02-13 18:00:00,
2013-02-13 13:14:00,43.1,30.0,29.71,NNE,22,1.0,3.0,61,0.00,,,0.00,weatherlink.com 1.10,2013-02-13 18:14:00,
2013-02-13 13:29:00,43.2,30.0,29.69,NE,46,0.0,5.0,60,0.00,,,0.00,weatherlink.com 1.10,2013-02-13 18:29:00,
2013-02-13 13:44:00,42.9,30.0,29.69,ENE,71,3.0,5.0,60,0.00,,,0.00,weatherlink.com 1.10,2013-02-13 18:44:00,
2013-02-13 13:59:00,43.7,30.0,29.67,NNE,14,2.0,7.0,60,0.00,,,0.00,weatherlink.com 1.10,2013-02-13 18:59:00,
2013-02-13 14:14:00,43.8,30.0,29.66,NE,55,3.0,8.0,59,0.00,,,0.00,weatherlink.com 1.10,2013-02-13 19:14:00,
2013-02-13 14:29:00,43.3,30.0,29.66,NE,37,0.0,9.0,59,0.00,,,0.00,weatherlink.com 1.10,2013-02-13 19:29:00,
2013-02-13 14:44:00,43.3,30.0,29.64,NE,44,3.0,7.0,60,0.00,,,0.00,weatherlink.com 1.10,2013-02-13 19:44:00,
2013-02-13 14:59:00,43.6,31.0,29.64,NE,37,2.0,6.0,61,0.00,,,0.00,weatherlink.com 1.10,2013-02-13 19:59:00,
2013-02-13 15:14:00,43.3,30.0,29.64,NNE,32,5.0,7.0,61,0.00,,,0.00,weatherlink.com 1.10,2013-02-13 20:14:00,
2013-02-13 15:29:00,42.5,30.0,29.64,NNE,25,3.0,5.0,61,0.00,,,0.00,weatherlink.com 1.10,2013-02-13 20:29:00,
2013-02-13 15:44:00,41.8,30.0,29.63,NE,45,2.0,7.0,64,0.00,,,0.00,weatherlink.com 1.10,2013-02-13 20:44:00,
2013-02-13 15:59:00,41.0,31.0,29.63,NE,39,2.0,6.0,68,0.00,,,0.00,weatherlink.com 1.10,2013-02-13 20:59:00,
2013-02-13 16:14:00,40.4,32.0,29.64,ENE,72,4.0,6.0,71,0.00,,,0.00,weatherlink.com 1.10,2013-02-13 21:14:00,
2013-02-13 16:29:00,39.4,32.0,29.64,NE,37,4.0,7.0,75,0.00,,,0.00,weatherlink.com 1.10,2013-02-13 21:29:00,
2013-02-13 16:44:00,38.4,32.0,29.63,NE,44,2.0,5.0,79,0.01,,,0.01,weatherlink.com 1.10,2013-02-13 21:44:00,
2013-02-13 16:59:00,37.5,33.0,29.63,NE,35,3.0,5.0,83,0.01,,,0.01,weatherlink.com 1.10,2013-02-13 21:59:00,
2013-02-13 17:14:00,36.6,33.0,29.64,North,5,4.0,4.0,85,0.03,,,0.03,weatherlink.com 1.10,2013-02-13 22:14:00,
2013-02-13 17:29:00,35.7,33.0,29.64,NNE,33,0.0,3.0,88,0.03,,,0.03,weatherlink.com 1.10,2013-02-13 22:29:00,
2013-02-13 17:44:00,35.0,32.0,29.64,NNE,31,0.0,3.0,90,0.02,,,0.03,weatherlink.com 1.10,2013-02-13 22:44:00,
2013-02-13 17:59:00,34.5,33.0,29.65,NNE,30,0.0,0.0,92,0.03,,,0.04,weatherlink.com 1.10,2013-02-13 22:59:00,
2013-02-13 18:14:00,34.0,32.0,29.66,North,356,0.0,1.0,93,0.01,,,0.04,weatherlink.com 1.10,2013-02-13 23:14:00,
2013-02-13 18:29:00,33.6,32.0,29.67,North,356,0.0,0.0,93,0.01,,,0.04,weatherlink.com 1.10,2013-02-13 23:29:00,
2013-02-13 18:44:00,33.4,32.0,29.67,North,356,0.0,0.0,94,0.01,,,0.04,weatherlink.com 1.10,2013-02-13 23:44:00,
2013-02-13 18:59:00,33.2,32.0,29.67,North,356,0.0,0.0,94,0.00,,,0.04,weatherlink.com 1.10,2013-02-13 23:59:00,
2013-02-13 19:14:00,33.2,32.0,29.68,North,356,0.0,0.0,95,0.00,,,0.04,weatherlink.com 1.10,2013-02-14 00:14:00,
2013-02-13 19:29:00,33.1,32.0,29.69,NNW,327,0.0,0.0,95,0.00,,,0.04,weatherlink.com 1.10,2013-02-14 00:29:00,
2013-02-13 19:44:00,33.2,32.0,29.69,NNW,327,0.0,1.0,95,0.00,,,0.04,weatherlink.com 1.10,2013-02-14 00:44:00,
2013-02-13 19:59:00,33.2,32.0,29.70,NNW,327,0.0,1.0,96,0.00,,,0.04,weatherlink.com 1.10,2013-02-14 00:59:00,
2013-02-13 20:14:00,33.4,32.0,29.70,NNW,340,0.0,1.0,95,0.01,,,0.05,weatherlink.com 1.10,2013-02-14 01:14:00,
2013-02-13 20:30:00,33.4,32.0,29.70,NW,323,0.0,2.0,95,0.01,,,0.05,weatherlink.com 1.10,2013-02-14 01:30:00,
2013-02-13 20:45:00,33.4,32.0,29.71,NW,323,0.0,0.0,95,0.01,,,0.05,weatherlink.com 1.10,2013-02-14 01:45:00,
2013-02-13 21:00:00,33.3,32.0,29.71,NW,323,0.0,0.0,95,0.01,,,0.05,weatherlink.com 1.10,2013-02-14 02:00:00,
2013-02-13 21:15:00,33.2,32.0,29.71,NW,323,0.0,0.0,95,0.00,,,0.05,weatherlink.com 1.10,2013-02-14 02:15:00,
2013-02-13 21:30:00,33.2,32.0,29.72,NW,323,0.0,0.0,96,0.00,,,0.05,weatherlink.com 1.10,2013-02-14 02:30:00,
2013-02-13 21:46:00,33.2,32.0,29.72,NW,323,0.0,0.0,96,0.00,,,0.05,weatherlink.com 1.10,2013-02-14 02:46:00,
2013-02-13 22:00:00,33.1,32.0,29.72,NW,323,0.0,0.0,96,0.00,,,0.05,weatherlink.com 1.10,2013-02-14 03:00:00,
2013-02-13 22:15:00,33.0,32.0,29.72,NW,323,0.0,0.0,96,0.00,,,0.05,weatherlink.com 1.10,2013-02-14 03:15:00,
2013-02-13 22:30:00,32.8,32.0,29.73,NW,323,0.0,0.0,96,0.00,,,0.05,weatherlink.com 1.10,2013-02-14 03:30:00,
2013-02-13 22:45:00,32.6,32.0,29.74,NW,319,0.0,2.0,96,0.00,,,0.05,weatherlink.com 1.10,2013-02-14 03:45:00,
2013-02-13 23:00:00,32.8,32.0,29.74,NW,319,0.0,0.0,96,0.00,,,0.05,weatherlink.com 1.10,2013-02-14 04:00:00,
2013-02-13 23:15:00,33.0,32.0,29.75,NW,319,0.0,0.0,97,0.00,,,0.05,weatherlink.com 1.10,2013-02-14 04:15:00,
2013-02-13 23:45:00,33.0,32.0,29.74,NW,319,0.0,0.0,96,0.00,,,0.05,weatherlink.com 1.10,2013-02-14 04:45:00,